createdAt,value
2023-05-12T00:01:38.444Z,62.89
2023-05-12T00:04:05.709Z,62.60
2023-05-12T00:06:32.872Z,63.12
2023-05-12T00:08:59.914Z,62.95
2023-05-12T00:11:27.098Z,63.33
2023-05-12T00:13:55.430Z,63.47
2023-05-12T00:16:22.488Z,63.49
2023-05-12T00:18:49.544Z,63.65
2023-05-12T00:21:16.697Z,63.64
2023-05-12T00:23:43.782Z,63.64
2023-05-12T00:26:10.886Z,63.58
2023-05-12T00:28:38.270Z,63.72
2023-05-12T00:31:05.695Z,63.50
2023-05-12T00:33:32.916Z,63.54
2023-05-12T00:36:04.179Z,63.92
2023-05-12T00:38:31.279Z,64.18
2023-05-12T00:40:58.356Z,63.91
2023-05-12T00:43:25.574Z,64.06
2023-05-12T00:45:53.066Z,64.34
2023-05-12T00:48:20.277Z,64.40
2023-05-12T00:50:47.313Z,64.34
2023-05-12T00:53:14.697Z,64.16
2023-05-12T00:55:42.425Z,64.13
2023-05-12T00:58:09.545Z,64.12
2023-05-12T01:00:36.859Z,64.62
2023-05-12T01:03:04.964Z,64.03
2023-05-12T01:06:10.228Z,64.63
2023-05-12T01:08:38.881Z,64.26
2023-05-12T01:11:06.676Z,64.43
2023-05-12T01:13:33.895Z,63.85
2023-05-12T01:16:03.256Z,64.25
2023-05-12T01:18:34.997Z,64.04
2023-05-12T01:21:03.212Z,63.82
2023-05-12T01:23:36.547Z,63.94
2023-05-12T01:26:08.025Z,64.17
2023-05-12T01:28:37.876Z,63.92
2023-05-12T01:31:07.382Z,63.99
2023-05-12T01:33:36.774Z,63.98
2023-05-12T01:36:04.430Z,64.36
2023-05-12T01:38:31.595Z,64.22
2023-05-12T01:40:58.708Z,64.28
2023-05-12T01:43:25.779Z,64.21
2023-05-12T01:45:52.795Z,64.24
2023-05-12T01:48:20.031Z,64.58
2023-05-12T01:50:47.101Z,64.05
2023-05-12T01:53:19.798Z,64.35
2023-05-12T01:55:46.827Z,64.20
2023-05-12T01:58:13.895Z,64.33
2023-05-12T02:00:41.130Z,64.47
2023-05-12T02:03:14.377Z,64.99
2023-05-12T02:05:41.438Z,64.94
2023-05-12T02:08:08.499Z,65.20
2023-05-12T02:10:35.967Z,65.14
2023-05-12T02:13:03.781Z,64.76
2023-05-12T02:15:33.441Z,64.81
2023-05-12T02:18:01.085Z,64.82
2023-05-12T02:20:29.777Z,65.40
2023-05-12T02:22:57.101Z,65.04
2023-05-12T02:25:24.232Z,65.29
2023-05-12T02:27:51.366Z,65.27
2023-05-12T02:30:18.929Z,65.01
2023-05-12T02:32:46.595Z,65.16
2023-05-12T02:35:13.899Z,65.47
2023-05-12T02:37:40.999Z,65.43
2023-05-12T02:40:08.974Z,65.71
2023-05-12T02:42:38.543Z,65.92
2023-05-12T02:45:06.425Z,65.32
2023-05-12T02:47:36.492Z,65.50
2023-05-12T02:50:04.024Z,65.85
2023-05-12T02:52:32.348Z,65.81
2023-05-12T02:54:59.450Z,66.03
2023-05-12T02:57:32.114Z,66.28
2023-05-12T02:59:59.208Z,66.35
2023-05-12T03:02:26.453Z,66.31
2023-05-12T03:04:53.680Z,66.49
2023-05-12T03:07:21.678Z,66.69
2023-05-12T03:09:48.782Z,66.49
2023-05-12T03:12:16.055Z,66.63
2023-05-12T03:14:43.158Z,66.55
2023-05-12T03:17:10.305Z,66.49
2023-05-12T03:19:37.527Z,66.84
2023-05-12T03:22:07.371Z,66.89
2023-05-12T03:24:36.752Z,66.54
2023-05-12T03:27:05.176Z,66.89
2023-05-12T03:29:32.268Z,66.75
2023-05-12T03:31:59.262Z,66.68
2023-05-12T03:34:26.684Z,66.62
2023-05-12T03:36:57.452Z,66.16
2023-05-12T03:39:25.256Z,65.77
2023-05-12T03:41:52.799Z,65.51
2023-05-12T03:44:19.817Z,64.87
2023-05-12T03:46:46.953Z,64.40
2023-05-12T03:49:14.237Z,63.27
2023-05-12T03:51:41.590Z,62.39
2023-05-12T03:54:09.092Z,61.87
2023-05-12T03:56:36.473Z,61.40
2023-05-12T03:59:04.183Z,60.72
2023-05-12T04:01:31.277Z,60.01
2023-05-12T04:03:58.364Z,59.66
2023-05-12T04:06:25.372Z,59.39
2023-05-12T04:08:52.373Z,59.41
2023-05-12T04:11:19.518Z,59.18
2023-05-12T04:13:46.550Z,58.80
2023-05-12T04:16:14.655Z,57.79
2023-05-12T04:18:41.772Z,57.10
2023-05-12T04:21:08.863Z,56.23
2023-05-12T04:23:35.931Z,55.81
2023-05-12T04:26:05.365Z,55.46
2023-05-12T04:28:32.493Z,55.32
2023-05-12T04:31:04.638Z,54.47
2023-05-12T04:33:32.410Z,54.30
2023-05-12T04:35:59.841Z,53.91
2023-05-12T04:38:27.552Z,53.60
2023-05-12T04:40:59.384Z,53.09
2023-05-12T04:45:59.813Z,52.79
2023-05-12T04:48:29.217Z,52.36
2023-05-12T04:51:00.173Z,51.78
2023-05-12T04:53:28.013Z,51.74
2023-05-12T04:55:56.765Z,51.58
2023-05-12T04:58:25.780Z,51.07
2023-05-12T05:00:53.345Z,51.26
2023-05-12T05:03:20.677Z,50.91
2023-05-12T05:05:49.186Z,50.80
2023-05-12T05:08:16.958Z,50.73
2023-05-12T05:10:44.091Z,51.09
2023-05-12T05:13:11.173Z,50.78
2023-05-12T05:15:38.468Z,50.32
2023-05-12T05:18:06.144Z,49.88
2023-05-12T05:20:34.658Z,49.67
2023-05-12T05:23:01.974Z,48.60
2023-05-12T05:25:29.062Z,48.52
2023-05-12T05:27:56.443Z,48.60
2023-05-12T05:30:23.532Z,48.37
2023-05-12T05:32:50.680Z,48.15
2023-05-12T05:35:18.902Z,47.84
2023-05-12T05:37:48.516Z,47.67
2023-05-12T05:40:15.712Z,47.09
2023-05-12T05:42:43.048Z,46.96
2023-05-12T05:45:11.278Z,46.72
2023-05-12T05:47:39.403Z,46.37
2023-05-12T05:50:08.096Z,46.23
2023-05-12T05:52:37.500Z,46.36
2023-05-12T05:55:05.054Z,45.90
2023-05-12T05:57:32.405Z,45.67
2023-05-12T06:00:00.396Z,45.81
2023-05-12T06:02:28.321Z,45.54
2023-05-12T06:04:55.585Z,45.08
2023-05-12T06:07:22.538Z,45.11
2023-05-12T06:09:49.675Z,44.67
2023-05-12T06:12:16.706Z,43.78
2023-05-12T06:14:43.715Z,43.53
2023-05-12T06:17:10.709Z,43.39
2023-05-12T06:19:38.064Z,43.35
2023-05-12T06:22:05.371Z,42.63
2023-05-12T06:24:32.362Z,42.31
2023-05-12T06:26:59.372Z,41.20
2023-05-12T06:29:26.397Z,40.96
2023-05-12T06:31:53.432Z,40.44
2023-05-12T06:34:20.532Z,40.14
2023-05-12T06:36:47.503Z,39.45
2023-05-12T06:39:14.601Z,39.59
2023-05-12T06:41:43.084Z,38.54
2023-05-12T06:44:20.085Z,38.67
2023-05-12T06:46:53.218Z,38.65
2023-05-12T06:49:21.878Z,38.11
2023-05-12T06:51:48.905Z,37.92
2023-05-12T06:54:16.000Z,36.88
2023-05-12T06:56:43.059Z,36.52
2023-05-12T06:59:10.077Z,35.47
2023-05-12T07:01:37.097Z,35.10
2023-05-12T07:04:04.610Z,33.98
2023-05-12T07:06:32.248Z,33.49
2023-05-12T07:08:59.341Z,33.05
2023-05-12T07:11:26.989Z,31.88
2023-05-12T07:13:54.016Z,31.65
2023-05-12T07:16:21.395Z,30.59
2023-05-12T07:18:48.489Z,30.80
2023-05-12T07:21:15.760Z,31.05
2023-05-12T07:23:43.002Z,30.80
2023-05-12T07:26:10.051Z,30.70
2023-05-12T07:28:37.236Z,29.74
2023-05-12T07:31:05.867Z,30.60
2023-05-12T07:33:33.529Z,30.35
2023-05-12T07:36:01.559Z,30.62
2023-05-12T07:38:29.220Z,30.93
2023-05-12T07:40:56.953Z,30.57
2023-05-12T07:43:23.989Z,29.62
2023-05-12T07:45:51.495Z,28.40
2023-05-12T07:48:18.990Z,28.69
2023-05-12T07:50:46.073Z,28.16
2023-05-12T07:53:13.172Z,28.10
2023-05-12T07:55:41.278Z,28.28
2023-05-12T07:58:08.288Z,28.20
2023-05-12T08:00:35.317Z,28.10
2023-05-12T08:03:02.536Z,28.18
2023-05-12T08:05:29.684Z,28.38
2023-05-12T08:07:56.666Z,28.07
2023-05-12T08:10:26.822Z,27.69
2023-05-12T08:12:53.818Z,27.22
2023-05-12T08:15:21.140Z,27.03
2023-05-12T08:17:48.643Z,26.42
2023-05-12T08:20:15.764Z,26.40
2023-05-12T08:22:42.809Z,26.25
2023-05-12T08:25:11.663Z,26.09
2023-05-12T08:27:39.615Z,26.35
2023-05-12T08:30:07.302Z,25.52
2023-05-12T08:32:34.695Z,25.80
2023-05-12T08:35:01.934Z,25.03
2023-05-12T08:37:34.516Z,24.55
2023-05-12T08:40:04.252Z,24.61
2023-05-12T08:42:41.538Z,24.26
2023-05-12T08:45:10.758Z,25.25
2023-05-12T08:47:39.041Z,25.43
2023-05-12T08:50:06.638Z,25.78
2023-05-12T08:52:36.596Z,25.64
2023-05-12T08:55:05.011Z,25.51
2023-05-12T08:57:33.788Z,25.14
2023-05-12T09:00:03.021Z,25.48
2023-05-12T09:02:51.977Z,24.69
2023-05-12T09:05:21.584Z,24.97
2023-05-12T09:07:50.476Z,24.54
2023-05-12T09:10:33.732Z,24.87
2023-05-12T09:13:16.599Z,24.36
2023-05-12T09:15:47.432Z,24.53
2023-05-12T09:18:14.621Z,24.56
2023-05-12T09:20:41.609Z,23.65
2023-05-12T09:23:19.891Z,23.75
2023-05-12T09:25:47.276Z,23.99
2023-05-12T09:28:14.857Z,23.86
2023-05-12T09:30:42.759Z,24.14
2023-05-12T09:33:14.021Z,23.74
2023-05-12T09:35:46.049Z,24.04
2023-05-12T09:38:14.763Z,24.17
2023-05-12T09:40:43.405Z,23.74
2023-05-12T09:43:13.613Z,23.66
2023-05-12T09:45:44.201Z,23.40
2023-05-12T09:48:12.829Z,23.42
2023-05-12T09:50:53.010Z,23.31
2023-05-12T09:53:23.036Z,23.51
2023-05-12T09:55:50.394Z,23.01
2023-05-12T09:58:19.642Z,23.82
2023-05-12T10:03:18.698Z,23.52
2023-05-12T10:05:53.030Z,23.53
2023-05-12T10:09:09.258Z,22.18
2023-05-12T10:11:37.057Z,22.95
2023-05-12T10:14:06.779Z,24.21
2023-05-12T10:16:34.128Z,24.61
2023-05-12T10:19:02.892Z,24.44
2023-05-12T10:21:30.788Z,24.19
2023-05-12T10:23:59.122Z,24.09
2023-05-12T10:26:27.496Z,23.88
2023-05-12T10:28:54.923Z,23.70
2023-05-12T10:31:23.073Z,24.19
2023-05-12T10:34:01.348Z,23.96
2023-05-12T10:36:29.242Z,24.78
2023-05-12T10:39:04.440Z,25.02
2023-05-12T10:41:33.152Z,24.75
2023-05-12T10:44:00.653Z,25.26
2023-05-12T10:46:28.209Z,25.83
2023-05-12T10:49:15.790Z,25.38
2023-05-12T10:51:42.696Z,25.52
2023-05-12T10:54:11.860Z,24.91
2023-05-12T10:56:39.709Z,24.62
2023-05-12T10:59:21.829Z,24.11
2023-05-12T11:02:01.885Z,24.17
2023-05-12T11:04:37.602Z,24.20
2023-05-12T11:07:07.730Z,24.11
2023-05-12T11:09:55.293Z,23.94
2023-05-12T11:12:32.702Z,23.96
2023-05-12T11:15:01.924Z,24.28
2023-05-12T11:17:33.890Z,24.38
2023-05-12T11:20:01.580Z,24.14
2023-05-12T11:22:33.379Z,23.56
2023-05-12T11:25:09.786Z,24.02
2023-05-12T11:27:42.443Z,24.87
2023-05-12T11:30:11.248Z,25.39
2023-05-12T11:32:38.831Z,25.29
2023-05-12T11:35:10.618Z,24.27
2023-05-12T11:37:39.745Z,24.31
2023-05-12T11:40:20.340Z,22.73
2023-05-12T11:42:53.053Z,23.65
2023-05-12T11:45:22.204Z,22.76
2023-05-12T11:47:49.638Z,23.13
2023-05-12T11:50:24.142Z,23.98
2023-05-12T11:52:52.658Z,23.49
2023-05-12T11:55:24.749Z,23.55
2023-05-12T11:58:03.226Z,23.41
2023-05-12T12:00:35.772Z,22.80
2023-05-12T12:03:14.169Z,23.08
2023-05-12T12:05:44.011Z,23.47
2023-05-12T12:08:14.897Z,23.14
2023-05-12T12:10:45.942Z,23.33
2023-05-12T12:13:19.749Z,23.08
2023-05-12T12:15:46.783Z,22.71
2023-05-12T12:18:13.901Z,22.69
2023-05-12T12:20:40.939Z,22.72
2023-05-12T12:23:07.921Z,23.15
2023-05-12T12:25:34.984Z,23.29
2023-05-12T12:28:02.736Z,22.97
2023-05-12T12:30:29.858Z,22.78
2023-05-12T12:32:57.254Z,23.41
2023-05-12T12:35:24.686Z,22.77
2023-05-12T12:37:52.970Z,22.80
2023-05-12T12:40:20.293Z,22.79
2023-05-12T12:42:48.360Z,23.42
2023-05-12T12:45:16.190Z,23.19
2023-05-12T12:47:44.049Z,23.62
2023-05-12T12:50:11.471Z,23.82
2023-05-12T12:52:38.780Z,23.19
2023-05-12T12:55:07.271Z,23.14
2023-05-12T12:57:34.927Z,23.27
2023-05-12T13:00:03.770Z,23.06
2023-05-12T13:02:37.418Z,23.09
2023-05-12T13:05:07.187Z,22.99
2023-05-12T13:07:34.703Z,23.63
2023-05-12T13:10:02.381Z,23.59
2023-05-12T13:12:33.244Z,23.29
2023-05-12T13:15:00.861Z,23.69
2023-05-12T13:17:28.579Z,23.40
2023-05-12T13:19:55.908Z,23.92
2023-05-12T13:22:23.019Z,24.04
2023-05-12T13:24:50.048Z,23.73
2023-05-12T13:27:17.114Z,23.48
2023-05-12T13:29:47.391Z,23.52
2023-05-12T13:32:16.205Z,23.72
2023-05-12T13:34:43.330Z,23.86
2023-05-12T13:37:10.674Z,24.28
2023-05-12T13:39:37.711Z,24.08
2023-05-12T13:42:05.072Z,23.95
2023-05-12T13:44:32.096Z,23.86
2023-05-12T13:46:59.228Z,24.02
2023-05-12T13:49:26.328Z,23.93
2023-05-12T13:51:53.306Z,23.65
2023-05-12T13:54:20.245Z,24.01
2023-05-12T13:56:47.363Z,24.36
2023-05-12T13:59:14.384Z,24.18
2023-05-12T14:01:41.745Z,24.07
2023-05-12T14:04:08.752Z,24.35
2023-05-12T14:06:35.821Z,24.00
2023-05-12T14:09:05.458Z,24.02
2023-05-12T14:11:33.492Z,24.16
2023-05-12T14:14:01.293Z,23.90
2023-05-12T14:16:28.518Z,23.97
2023-05-12T14:18:55.967Z,23.73
2023-05-12T14:21:23.066Z,23.78
2023-05-12T14:23:51.324Z,23.61
2023-05-12T14:26:19.486Z,23.86
2023-05-12T14:28:46.665Z,24.16
2023-05-12T14:31:13.848Z,24.18
2023-05-12T14:33:41.137Z,24.43
2023-05-12T14:36:09.035Z,24.42
2023-05-12T14:38:36.638Z,24.37
2023-05-12T14:41:04.127Z,24.31
2023-05-12T14:43:31.180Z,24.36
2023-05-12T14:45:58.284Z,24.20
2023-05-12T14:48:28.026Z,24.38
2023-05-12T14:50:56.766Z,24.60
2023-05-12T14:53:24.392Z,24.46
2023-05-12T14:55:51.719Z,24.13
2023-05-12T14:58:19.346Z,24.39
2023-05-12T15:00:47.592Z,24.25
2023-05-12T15:03:14.849Z,24.02
2023-05-12T15:06:01.539Z,23.93
2023-05-12T15:08:29.490Z,23.94
2023-05-12T15:10:56.568Z,24.04
2023-05-12T15:13:23.703Z,24.24
2023-05-12T15:15:52.971Z,24.23
2023-05-12T15:18:22.396Z,24.43
2023-05-12T15:20:49.501Z,24.45
2023-05-12T15:23:16.495Z,24.34
2023-05-12T15:25:43.527Z,24.81
2023-05-12T15:28:10.610Z,24.89
2023-05-12T15:30:37.710Z,24.54
2023-05-12T15:33:05.103Z,24.75
2023-05-12T15:35:32.832Z,24.51
2023-05-12T15:38:00.369Z,24.85
2023-05-12T15:40:27.543Z,24.96
2023-05-12T15:42:54.714Z,25.15
2023-05-12T15:45:22.017Z,24.87
2023-05-12T15:47:49.246Z,24.96
2023-05-12T15:50:19.928Z,24.87
2023-05-12T15:52:47.567Z,25.05
2023-05-12T15:55:15.231Z,24.99
2023-05-12T15:57:42.281Z,24.69
2023-05-12T16:00:09.737Z,24.50
2023-05-12T16:02:45.587Z,24.77
2023-05-12T16:05:12.688Z,24.67
2023-05-12T16:07:39.933Z,24.55
2023-05-12T16:10:07.405Z,24.82
2023-05-12T16:12:34.609Z,24.55
2023-05-12T16:15:02.248Z,24.79
2023-05-12T16:17:34.289Z,24.52
2023-05-12T16:20:02.141Z,24.46
2023-05-12T16:22:31.990Z,24.44
2023-05-12T16:24:59.238Z,24.83
2023-05-12T16:27:26.977Z,24.33
2023-05-12T16:29:54.068Z,24.36
2023-05-12T16:32:21.161Z,24.56
2023-05-12T16:34:48.370Z,24.47
2023-05-12T16:37:15.386Z,24.22
2023-05-12T16:39:42.786Z,24.52
2023-05-12T16:42:09.929Z,24.42
2023-05-12T16:44:36.981Z,24.70
2023-05-12T16:47:04.402Z,24.53
2023-05-12T16:49:31.538Z,24.84
2023-05-12T16:51:58.524Z,24.50
2023-05-12T16:54:25.637Z,24.55
2023-05-12T16:59:20.205Z,25.48
2023-05-12T17:01:47.313Z,25.16
2023-05-12T17:04:15.566Z,25.29
2023-05-12T17:06:43.370Z,25.03
2023-05-12T17:09:10.371Z,25.08
2023-05-12T17:11:37.370Z,25.36
2023-05-12T17:14:05.000Z,25.36
2023-05-12T17:16:32.200Z,25.20
2023-05-12T17:21:29.304Z,25.82
2023-05-12T17:23:57.333Z,25.99
2023-05-12T17:26:27.703Z,26.00
2023-05-12T17:28:55.633Z,27.32
2023-05-12T17:31:22.946Z,27.76
2023-05-12T17:33:50.075Z,27.60
2023-05-12T17:36:18.738Z,27.42
2023-05-12T17:38:46.384Z,27.18
2023-05-12T17:41:13.744Z,27.36
2023-05-12T17:43:41.522Z,27.52
2023-05-12T17:46:09.264Z,27.94
2023-05-12T17:48:38.498Z,27.96
2023-05-12T17:51:06.465Z,28.17
2023-05-12T17:53:34.200Z,28.38
2023-05-12T17:56:01.660Z,28.46
2023-05-12T17:58:28.931Z,28.56
2023-05-12T18:00:56.312Z,28.95
2023-05-12T18:03:23.975Z,29.07
2023-05-12T18:05:53.382Z,29.38
2023-05-12T18:08:21.819Z,29.46
2023-05-12T18:10:49.105Z,29.80
2023-05-12T18:13:16.268Z,29.54
2023-05-12T18:15:43.569Z,29.65
2023-05-12T18:18:11.052Z,29.76
2023-05-12T18:20:38.582Z,29.94
2023-05-12T18:23:05.935Z,30.15
2023-05-12T18:25:33.266Z,30.36
2023-05-12T18:28:00.372Z,30.42
2023-05-12T18:30:27.562Z,30.58
2023-05-12T18:32:54.791Z,30.71
2023-05-12T18:35:22.223Z,31.62
2023-05-12T18:37:49.647Z,32.61
2023-05-12T18:40:17.031Z,33.26
2023-05-12T18:42:44.225Z,33.75
2023-05-12T18:45:12.182Z,34.42
2023-05-12T18:47:39.806Z,34.34
2023-05-12T18:50:07.991Z,34.77
2023-05-12T18:52:35.703Z,35.50
2023-05-12T18:55:03.142Z,35.07
2023-05-12T18:57:33.141Z,35.42
2023-05-12T19:00:00.642Z,36.31
2023-05-12T19:02:28.033Z,36.33
2023-05-12T19:04:55.250Z,36.20
2023-05-12T19:07:22.556Z,36.43
2023-05-12T19:09:49.685Z,36.54
2023-05-12T19:12:16.826Z,36.20
2023-05-12T19:14:44.652Z,36.45
2023-05-12T19:17:11.747Z,36.64
2023-05-12T19:19:38.848Z,37.24
2023-05-12T19:22:05.952Z,36.92
2023-05-12T19:24:34.553Z,37.08
2023-05-12T19:27:01.836Z,37.20
2023-05-12T19:29:28.998Z,37.62
2023-05-12T19:31:56.266Z,37.95
2023-05-12T19:34:24.005Z,38.00
2023-05-12T19:36:53.022Z,37.89
2023-05-12T19:39:20.143Z,37.80
2023-05-12T19:41:47.196Z,38.30
2023-05-12T19:44:14.231Z,38.48
2023-05-12T19:46:41.467Z,39.05
2023-05-12T19:49:08.667Z,38.98
2023-05-12T19:51:35.742Z,39.21
2023-05-12T19:54:04.920Z,38.88
2023-05-12T19:56:32.988Z,38.83
2023-05-12T19:59:00.209Z,39.40
2023-05-12T20:01:27.592Z,39.62
2023-05-12T20:03:54.763Z,40.08
2023-05-12T20:06:22.569Z,40.23
2023-05-12T20:08:49.592Z,40.63
2023-05-12T20:11:16.596Z,40.40
2023-05-12T20:13:43.591Z,40.65
2023-05-12T20:16:10.818Z,40.88
2023-05-12T20:18:37.959Z,41.16
2023-05-12T20:21:05.058Z,41.28
2023-05-12T20:23:32.262Z,41.19
2023-05-12T20:25:59.934Z,41.43
2023-05-12T20:28:28.342Z,41.59
2023-05-12T20:30:55.517Z,41.61
2023-05-12T20:33:22.675Z,41.97
2023-05-12T20:35:49.725Z,42.16
2023-05-12T20:38:16.881Z,42.41
2023-05-12T20:40:43.920Z,42.71
2023-05-12T20:43:13.613Z,43.00
2023-05-12T20:45:41.470Z,43.08
2023-05-12T20:48:09.346Z,43.67
2023-05-12T20:50:36.466Z,43.54
2023-05-12T20:53:04.674Z,43.69
2023-05-12T20:55:35.461Z,44.06
2023-05-12T20:58:02.536Z,44.05
2023-05-12T21:00:29.593Z,44.27
2023-05-12T21:02:58.182Z,44.88
2023-05-12T21:05:25.762Z,44.72
2023-05-12T21:07:52.919Z,44.95
2023-05-12T21:10:20.556Z,44.88
2023-05-12T21:12:48.678Z,44.95
2023-05-12T21:15:15.905Z,44.79
2023-05-12T21:17:42.968Z,44.92
2023-05-12T21:20:11.966Z,45.15
2023-05-12T21:22:40.767Z,45.05
2023-05-12T21:25:08.520Z,44.84
2023-05-12T21:27:40.560Z,45.04
2023-05-12T21:30:09.524Z,44.84
2023-05-12T21:32:36.846Z,45.12
2023-05-12T21:35:04.996Z,45.15
2023-05-12T21:37:33.131Z,45.19
2023-05-12T21:40:00.218Z,44.75
2023-05-12T21:42:27.409Z,45.19
2023-05-12T21:44:54.497Z,45.74
2023-05-12T21:47:21.533Z,45.96
2023-05-12T21:49:53.651Z,45.85
2023-05-12T21:52:21.105Z,45.62
2023-05-12T21:54:48.151Z,45.78
2023-05-12T21:57:15.301Z,45.63
2023-05-12T21:59:42.318Z,45.78
2023-05-12T22:02:09.337Z,45.85
2023-05-12T22:04:36.515Z,45.67
2023-05-12T22:07:03.600Z,45.84
2023-05-12T22:09:31.272Z,45.95
2023-05-12T22:11:58.529Z,46.00
2023-05-12T22:14:25.559Z,46.35
2023-05-12T22:16:52.608Z,46.38
2023-05-12T22:19:19.740Z,46.28
2023-05-12T22:21:47.029Z,46.51
2023-05-12T22:24:14.357Z,46.43
2023-05-12T22:26:41.496Z,46.87
2023-05-12T22:29:08.469Z,46.98
2023-05-12T22:31:35.957Z,46.93
2023-05-12T22:34:02.946Z,46.59
2023-05-12T22:36:30.380Z,46.66
2023-05-12T22:38:57.384Z,46.67
2023-05-12T22:41:24.462Z,46.57
2023-05-12T22:43:51.647Z,46.61
2023-05-12T22:46:18.718Z,46.63
2023-05-12T22:48:45.777Z,46.57
2023-05-12T22:51:12.878Z,46.92
2023-05-12T22:53:43.006Z,46.88
2023-05-12T22:56:10.017Z,47.24
2023-05-12T22:58:37.308Z,47.37
2023-05-12T23:01:04.558Z,47.17
2023-05-12T23:03:32.960Z,46.92
2023-05-12T23:05:59.989Z,47.02
2023-05-12T23:08:27.015Z,46.72
2023-05-12T23:10:54.231Z,46.66
2023-05-12T23:13:21.249Z,46.89
2023-05-12T23:15:48.315Z,46.75
2023-05-12T23:18:15.651Z,46.78
2023-05-12T23:20:43.058Z,46.71
2023-05-12T23:23:10.110Z,46.99
2023-05-12T23:25:38.840Z,46.77
2023-05-12T23:28:06.664Z,46.75
2023-05-12T23:30:33.771Z,47.41
2023-05-12T23:33:01.041Z,48.06
2023-05-12T23:35:28.086Z,48.15
2023-05-12T23:37:55.108Z,48.33
2023-05-12T23:40:22.389Z,48.24
2023-05-12T23:42:49.762Z,48.39
2023-05-12T23:45:16.838Z,48.10
2023-05-12T23:47:43.841Z,48.14
2023-05-12T23:50:11.492Z,48.07
2023-05-12T23:52:38.508Z,48.19
2023-05-12T23:55:06.150Z,47.94
2023-05-12T23:57:33.150Z,48.33
